New Orleans, Louisiana
Traffic Map
Current Weather Conditions
New Orleans, Louisiana
Scattered Clouds
Scattered Clouds
80°
Feels Like: 82°
Wind Chill: 80° Ceiling: Unl
Heat Index: 82° Visibility: 10mi
Dew Point: 65° Wind: 14mph
Humidity: 60% Direction: 210° (SSW)
Pressure: 29.95in Gusts: 0mph
Raw Report DataKNEW 041853Z 21012KT 10SM FEW033 SCT040 SCT080 27/18 A2995 RMK AO2 SLP136 T02670183
Traffic Incident Summary
Active as of:
Severity:
Category:
InformationThere was an issue retrieving the traffic information for this location. Please try a different location or try again shortly.
Advertisements
Track Severe Weather on mobile